sensor_id;sensor_type;location;lat;lon;timestamp;pressure;altitude;pressure_sealevel;temperature;humidity
39181;BME280;24906;48.262;14.264;2022-07-23T00:00:55;98479.78;;;24.37;100.00
39181;BME280;24906;48.262;14.264;2022-07-23T00:03:49;98478.84;;;24.31;100.00
39181;BME280;24906;48.262;14.264;2022-07-23T00:06:36;98484.03;;;24.33;100.00
39181;BME280;24906;48.262;14.264;2022-07-23T00:09:30;98485.09;;;24.32;100.00
39181;BME280;24906;48.262;14.264;2022-07-23T00:12:24;98475.06;;;24.32;100.00
39181;BME280;24906;48.262;14.264;2022-07-23T00:15:11;98467.31;;;24.24;100.00
39181;BME280;24906;48.262;14.264;2022-07-23T00:18:05;98458.84;;;24.20;100.00
39181;BME280;24906;48.262;14.264;2022-07-23T00:20:52;98442.00;;;24.18;100.00
39181;BME280;24906;48.262;14.264;2022-07-23T00:23:46;98435.50;;;24.19;100.00
39181;BME280;24906;48.262;14.264;2022-07-23T00:26:33;98423.50;;;24.15;100.00
39181;BME280;24906;48.262;14.264;2022-07-23T00:29:27;98399.13;;;24.15;100.00
39181;BME280;24906;48.262;14.264;2022-07-23T00:32:14;98392.38;;;24.18;100.00
39181;BME280;24906;48.262;14.264;2022-07-23T00:35:31;98376.66;;;24.20;100.00
39181;BME280;24906;48.262;14.264;2022-07-23T00:38:34;98365.09;;;24.24;100.00
39181;BME280;24906;48.262;14.264;2022-07-23T00:41:21;98355.91;;;24.26;100.00
39181;BME280;24906;48.262;14.264;2022-07-23T00:44:18;98346.19;;;24.30;100.00
39181;BME280;24906;48.262;14.264;2022-07-23T00:47:12;98338.81;;;24.25;100.00
39181;BME280;24906;48.262;14.264;2022-07-23T00:50:00;98340.38;;;24.21;100.00
39181;BME280;24906;48.262;14.264;2022-07-23T00:52:53;98315.78;;;24.28;100.00
39181;BME280;24906;48.262;14.264;2022-07-23T00:55:47;98312.84;;;24.29;100.00
39181;BME280;24906;48.262;14.264;2022-07-23T00:58:42;98309.38;;;24.34;100.00
39181;BME280;24906;48.262;14.264;2022-07-23T01:01:36;98315.94;;;24.38;100.00
39181;BME280;24906;48.262;14.264;2022-07-23T01:04:24;98313.31;;;24.43;100.00
39181;BME280;24906;48.262;14.264;2022-07-23T01:07:18;98314.66;;;24.40;100.00
39181;BME280;24906;48.262;14.264;2022-07-23T01:10:06;98350.16;;;24.39;100.00
39181;BME280;24906;48.262;14.264;2022-07-23T01:13:20;98361.06;;;24.27;100.00
39181;BME280;24906;48.262;14.264;2022-07-23T01:16:07;98359.19;;;24.28;100.00
39181;BME280;24906;48.262;14.264;2022-07-23T01:19:01;98350.00;;;24.29;100.00
39181;BME280;24906;48.262;14.264;2022-07-23T01:21:50;98340.28;;;24.33;100.00
39181;BME280;24906;48.262;14.264;2022-07-23T01:24:44;98339.53;;;24.37;100.00
39181;BME280;24906;48.262;14.264;2022-07-23T01:27:31;98364.94;;;24.31;100.00
39181;BME280;24906;48.262;14.264;2022-07-23T01:30:25;98346.00;;;24.02;100.00
39181;BME280;24906;48.262;14.264;2022-07-23T01:33:12;98368.41;;;23.98;100.00
39181;BME280;24906;48.262;14.264;2022-07-23T01:36:12;98362.69;;;23.82;100.00
39181;BME280;24906;48.262;14.264;2022-07-23T01:39:07;98345.97;;;23.86;100.00
39181;BME280;24906;48.262;14.264;2022-07-23T01:42:02;98340.88;;;23.89;100.00
39181;BME280;24906;48.262;14.264;2022-07-23T01:44:56;98335.50;;;23.77;100.00
39181;BME280;24906;48.262;14.264;2022-07-23T01:47:43;98328.03;;;23.84;100.00
39181;BME280;24906;48.262;14.264;2022-07-23T01:50:37;98336.84;;;23.92;100.00
39181;BME280;24906;48.262;14.264;2022-07-23T01:53:24;98337.94;;;23.91;100.00
39181;BME280;24906;48.262;14.264;2022-07-23T01:56:18;98343.34;;;23.91;100.00
39181;BME280;24906;48.262;14.264;2022-07-23T01:59:14;98339.84;;;23.78;100.00
39181;BME280;24906;48.262;14.264;2022-07-23T02:02:08;98329.69;;;23.86;100.00
39181;BME280;24906;48.262;14.264;2022-07-23T02:04:55;98337.69;;;23.92;100.00
39181;BME280;24906;48.262;14.264;2022-07-23T02:07:49;98336.47;;;24.00;100.00
39181;BME280;24906;48.262;14.264;2022-07-23T02:10:43;98335.88;;;23.98;100.00
39181;BME280;24906;48.262;14.264;2022-07-23T02:13:37;98328.81;;;23.97;100.00
39181;BME280;24906;48.262;14.264;2022-07-23T02:16:24;98325.88;;;23.98;100.00
39181;BME280;24906;48.262;14.264;2022-07-23T02:19:18;98328.59;;;23.98;100.00
39181;BME280;24906;48.262;14.264;2022-07-23T02:22:12;98329.97;;;24.01;100.00
39181;BME280;24906;48.262;14.264;2022-07-23T02:24:59;98327.03;;;24.02;100.00
39181;BME280;24906;48.262;14.264;2022-07-23T02:27:52;98354.28;;;23.96;100.00
39181;BME280;24906;48.262;14.264;2022-07-23T02:30:39;98364.16;;;24.02;100.00
39181;BME280;24906;48.262;14.264;2022-07-23T02:33:33;98356.84;;;24.02;100.00
39181;BME280;24906;48.262;14.264;2022-07-23T02:36:40;98359.66;;;24.08;100.00
39181;BME280;24906;48.262;14.264;2022-07-23T02:39:40;98345.44;;;24.00;100.00
39181;BME280;24906;48.262;14.264;2022-07-23T02:42:34;98350.28;;;23.98;100.00
39181;BME280;24906;48.262;14.264;2022-07-23T02:45:21;98354.03;;;23.97;100.00
39181;BME280;24906;48.262;14.264;2022-07-23T02:48:15;98357.47;;;23.93;100.00
39181;BME280;24906;48.262;14.264;2022-07-23T02:51:09;98355.47;;;23.88;100.00
39181;BME280;24906;48.262;14.264;2022-07-23T02:54:03;98353.63;;;23.89;100.00
39181;BME280;24906;48.262;14.264;2022-07-23T02:56:57;98343.50;;;23.84;100.00
39181;BME280;24906;48.262;14.264;2022-07-23T02:59:44;98342.09;;;23.81;100.00
39181;BME280;24906;48.262;14.264;2022-07-23T03:02:37;98356.00;;;23.85;100.00
39181;BME280;24906;48.262;14.264;2022-07-23T03:05:31;98362.81;;;23.88;100.00
39181;BME280;24906;48.262;14.264;2022-07-23T03:08:18;98372.94;;;23.92;100.00
39181;BME280;24906;48.262;14.264;2022-07-23T03:11:11;98377.75;;;23.90;100.00
39181;BME280;24906;48.262;14.264;2022-07-23T03:14:04;98379.53;;;23.84;100.00
39181;BME280;24906;48.262;14.264;2022-07-23T03:16:58;98376.75;;;23.79;100.00
39181;BME280;24906;48.262;14.264;2022-07-23T03:19:46;98380.72;;;23.77;100.00
39181;BME280;24906;48.262;14.264;2022-07-23T03:22:40;98390.63;;;23.83;100.00
39181;BME280;24906;48.262;14.264;2022-07-23T03:25:33;98409.47;;;23.78;100.00
39181;BME280;24906;48.262;14.264;2022-07-23T03:28:27;98426.16;;;23.58;100.00
39181;BME280;24906;48.262;14.264;2022-07-23T03:31:21;98433.00;;;23.49;100.00
39181;BME280;24906;48.262;14.264;2022-07-23T03:34:08;98429.94;;;23.45;100.00
39181;BME280;24906;48.262;14.264;2022-07-23T03:37:02;98435.00;;;23.41;100.00
39181;BME280;24906;48.262;14.264;2022-07-23T03:39:56;98439.13;;;23.32;100.00
39181;BME280;24906;48.262;14.264;2022-07-23T03:42:50;98442.53;;;23.39;100.00
39181;BME280;24906;48.262;14.264;2022-07-23T03:45:44;98440.16;;;23.55;100.00
39181;BME280;24906;48.262;14.264;2022-07-23T03:48:31;98443.56;;;23.62;100.00
39181;BME280;24906;48.262;14.264;2022-07-23T03:51:25;98458.88;;;23.68;100.00
39181;BME280;24906;48.262;14.264;2022-07-23T03:54:12;98480.66;;;23.61;100.00
39181;BME280;24906;48.262;14.264;2022-07-23T03:57:06;98515.78;;;23.44;100.00
39181;BME280;24906;48.262;14.264;2022-07-23T04:00:00;98501.50;;;23.14;100.00
39181;BME280;24906;48.262;14.264;2022-07-23T04:02:54;98516.56;;;23.10;100.00
39181;BME280;24906;48.262;14.264;2022-07-23T04:05:47;98513.28;;;23.08;100.00
39181;BME280;24906;48.262;14.264;2022-07-23T04:08:34;98492.56;;;23.13;100.00
39181;BME280;24906;48.262;14.264;2022-07-23T04:11:28;98496.78;;;22.97;100.00
39181;BME280;24906;48.262;14.264;2022-07-23T04:14:22;98490.75;;;22.95;100.00
39181;BME280;24906;48.262;14.264;2022-07-23T04:17:15;98491.72;;;22.89;100.00
39181;BME280;24906;48.262;14.264;2022-07-23T04:20:08;98489.00;;;23.01;100.00
39181;BME280;24906;48.262;14.264;2022-07-23T04:22:55;98499.47;;;22.97;100.00
39181;BME280;24906;48.262;14.264;2022-07-23T04:25:51;98501.59;;;22.95;100.00
39181;BME280;24906;48.262;14.264;2022-07-23T04:28:38;98513.31;;;22.77;100.00
39181;BME280;24906;48.262;14.264;2022-07-23T04:31:32;98507.22;;;22.82;100.00
39181;BME280;24906;48.262;14.264;2022-07-23T04:34:31;98508.84;;;22.83;100.00
39181;BME280;24906;48.262;14.264;2022-07-23T04:37:25;98516.72;;;22.73;100.00
39181;BME280;24906;48.262;14.264;2022-07-23T04:40:18;98519.84;;;22.58;100.00
39181;BME280;24906;48.262;14.264;2022-07-23T04:43:12;98517.72;;;22.60;100.00
39181;BME280;24906;48.262;14.264;2022-07-23T04:46:06;98519.69;;;22.53;100.00
39181;BME280;24906;48.262;14.264;2022-07-23T04:49:00;98517.28;;;22.63;100.00
39181;BME280;24906;48.262;14.264;2022-07-23T04:51:54;98524.69;;;22.67;100.00
39181;BME280;24906;48.262;14.264;2022-07-23T04:54:48;98521.88;;;22.62;100.00
39181;BME280;24906;48.262;14.264;2022-07-23T04:57:35;98541.22;;;22.78;100.00
39181;BME280;24906;48.262;14.264;2022-07-23T05:00:29;98544.59;;;22.73;100.00
39181;BME280;24906;48.262;14.264;2022-07-23T05:03:16;98548.00;;;22.68;100.00
39181;BME280;24906;48.262;14.264;2022-07-23T05:06:10;98551.88;;;22.73;100.00
39181;BME280;24906;48.262;14.264;2022-07-23T05:08:57;98551.66;;;22.74;100.00
39181;BME280;24906;48.262;14.264;2022-07-23T05:11:51;98552.84;;;22.78;100.00
39181;BME280;24906;48.262;14.264;2022-07-23T05:14:38;98553.22;;;22.82;100.00
39181;BME280;24906;48.262;14.264;2022-07-23T05:17:32;98558.06;;;22.92;100.00
39181;BME280;24906;48.262;14.264;2022-07-23T05:20:26;98549.81;;;22.98;100.00
39181;BME280;24906;48.262;14.264;2022-07-23T05:23:13;98548.09;;;23.04;100.00
39181;BME280;24906;48.262;14.264;2022-07-23T05:26:07;98551.91;;;23.15;100.00
39181;BME280;24906;48.262;14.264;2022-07-23T05:28:54;98539.31;;;23.20;100.00
39181;BME280;24906;48.262;14.264;2022-07-23T05:31:48;98529.78;;;23.30;100.00
39181;BME280;24906;48.262;14.264;2022-07-23T05:34:48;98528.13;;;23.40;100.00
39181;BME280;24906;48.262;14.264;2022-07-23T05:37:35;98521.78;;;23.47;100.00
39181;BME280;24906;48.262;14.264;2022-07-23T05:40:30;98510.59;;;23.55;98.49
39181;BME280;24906;48.262;14.264;2022-07-23T05:43:17;98508.34;;;23.63;97.51
39181;BME280;24906;48.262;14.264;2022-07-23T05:46:11;98506.69;;;23.74;95.55
39181;BME280;24906;48.262;14.264;2022-07-23T05:48:58;98497.16;;;23.83;95.72
39181;BME280;24906;48.262;14.264;2022-07-23T05:51:53;98494.28;;;23.90;94.18
39181;BME280;24906;48.262;14.264;2022-07-23T05:54:46;98490.88;;;23.95;90.56
39181;BME280;24906;48.262;14.264;2022-07-23T05:57:40;98499.91;;;24.12;87.90
39181;BME280;24906;48.262;14.264;2022-07-23T06:00:28;98498.69;;;24.20;87.29
39181;BME280;24906;48.262;14.264;2022-07-23T06:03:22;98498.59;;;24.15;88.40
39181;BME280;24906;48.262;14.264;2022-07-23T06:06:09;98502.03;;;24.10;90.07
39181;BME280;24906;48.262;14.264;2022-07-23T06:09:03;98491.53;;;24.14;88.90
39181;BME280;24906;48.262;14.264;2022-07-23T06:11:50;98501.56;;;24.13;87.27
39181;BME280;24906;48.262;14.264;2022-07-23T06:14:44;98492.69;;;24.18;90.87
39181;BME280;24906;48.262;14.264;2022-07-23T06:17:38;98494.94;;;24.21;86.89
39181;BME280;24906;48.262;14.264;2022-07-23T06:20:25;98494.44;;;24.24;88.02
39181;BME280;24906;48.262;14.264;2022-07-23T06:23:19;98489.34;;;24.28;88.64
39181;BME280;24906;48.262;14.264;2022-07-23T06:26:06;98485.38;;;24.47;88.97
39181;BME280;24906;48.262;14.264;2022-07-23T06:29:00;98487.84;;;24.49;87.94
39181;BME280;24906;48.262;14.264;2022-07-23T06:31:47;98492.47;;;24.48;86.36
39181;BME280;24906;48.262;14.264;2022-07-23T06:34:41;98491.50;;;24.54;85.21
39181;BME280;24906;48.262;14.264;2022-07-23T06:37:41;98499.41;;;24.56;84.43
39181;BME280;24906;48.262;14.264;2022-07-23T06:40:35;98490.53;;;24.60;82.33
39181;BME280;24906;48.262;14.264;2022-07-23T06:43:30;98503.28;;;24.60;82.69
39181;BME280;24906;48.262;14.264;2022-07-23T06:46:18;98494.34;;;24.59;81.45
39181;BME280;24906;48.262;14.264;2022-07-23T06:49:12;98499.19;;;24.74;80.98
39181;BME280;24906;48.262;14.264;2022-07-23T06:51:59;98496.41;;;24.86;77.09
39181;BME280;24906;48.262;14.264;2022-07-23T06:54:53;98484.56;;;24.92;75.20
39181;BME280;24906;48.262;14.264;2022-07-23T06:57:40;98485.63;;;24.91;75.66
39181;BME280;24906;48.262;14.264;2022-07-23T07:00:34;98489.91;;;25.04;74.21
39181;BME280;24906;48.262;14.264;2022-07-23T07:03:21;98486.53;;;25.14;74.72
39181;BME280;24906;48.262;14.264;2022-07-23T07:06:15;98482.56;;;25.21;75.62
39181;BME280;24906;48.262;14.264;2022-07-23T07:09:11;98483.91;;;25.19;70.93
39181;BME280;24906;48.262;14.264;2022-07-23T07:12:04;98491.16;;;25.30;73.10
39181;BME280;24906;48.262;14.264;2022-07-23T07:14:51;98486.97;;;25.39;71.68
39181;BME280;24906;48.262;14.264;2022-07-23T07:17:47;98491.31;;;25.40;70.61
39181;BME280;24906;48.262;14.264;2022-07-23T07:20:34;98487.78;;;25.40;71.49
39181;BME280;24906;48.262;14.264;2022-07-23T07:23:28;98482.16;;;25.47;68.93
39181;BME280;24906;48.262;14.264;2022-07-23T07:26:15;98476.31;;;25.55;68.96
39181;BME280;24906;48.262;14.264;2022-07-23T07:29:09;98480.28;;;25.69;68.35
39181;BME280;24906;48.262;14.264;2022-07-23T07:31:56;98482.84;;;25.76;68.41
39181;BME280;24906;48.262;14.264;2022-07-23T07:34:50;98479.91;;;25.83;67.53
39181;BME280;24906;48.262;14.264;2022-07-23T07:37:58;98478.84;;;26.01;65.81
39181;BME280;24906;48.262;14.264;2022-07-23T07:40:45;98487.84;;;26.06;61.39
39181;BME280;24906;48.262;14.264;2022-07-23T07:43:39;98494.88;;;26.02;63.47
39181;BME280;24906;48.262;14.264;2022-07-23T07:46:26;98508.41;;;26.19;61.95
39181;BME280;24906;48.262;14.264;2022-07-23T07:49:21;98512.47;;;26.16;59.83
39181;BME280;24906;48.262;14.264;2022-07-23T07:52:20;98510.97;;;26.31;58.43
39181;BME280;24906;48.262;14.264;2022-07-23T07:55:14;98517.06;;;26.38;57.81
39181;BME280;24906;48.262;14.264;2022-07-23T07:58:01;98514.59;;;26.36;56.25
39181;BME280;24906;48.262;14.264;2022-07-23T08:00:55;98505.69;;;26.46;56.54
39181;BME280;24906;48.262;14.264;2022-07-23T08:03:49;98509.47;;;26.40;56.15
39181;BME280;24906;48.262;14.264;2022-07-23T08:06:43;98514.91;;;26.40;57.02
39181;BME280;24906;48.262;14.264;2022-07-23T08:09:30;98520.41;;;26.45;58.83
39181;BME280;24906;48.262;14.264;2022-07-23T08:12:23;98521.53;;;26.49;62.11
39181;BME280;24906;48.262;14.264;2022-07-23T08:15:10;98513.94;;;26.51;65.04
39181;BME280;24906;48.262;14.264;2022-07-23T08:18:11;98511.34;;;26.62;62.82
39181;BME280;24906;48.262;14.264;2022-07-23T08:21:05;98504.81;;;26.63;62.25
39181;BME280;24906;48.262;14.264;2022-07-23T08:23:59;98502.59;;;26.60;64.43
39181;BME280;24906;48.262;14.264;2022-07-23T08:26:46;98498.09;;;26.70;66.22
39181;BME280;24906;48.262;14.264;2022-07-23T08:29:40;98500.63;;;26.77;65.89
39181;BME280;24906;48.262;14.264;2022-07-23T08:32:54;98507.34;;;26.69;64.41
39181;BME280;24906;48.262;14.264;2022-07-23T08:35:54;98502.72;;;26.70;67.62
39181;BME280;24906;48.262;14.264;2022-07-23T08:38:42;98514.69;;;26.69;69.21
39181;BME280;24906;48.262;14.264;2022-07-23T08:41:39;98523.97;;;26.73;68.45
39181;BME280;24906;48.262;14.264;2022-07-23T08:44:35;98525.88;;;26.72;65.82
39181;BME280;24906;48.262;14.264;2022-07-23T08:47:22;98533.38;;;26.87;68.26
39181;BME280;24906;48.262;14.264;2022-07-23T08:50:16;98537.22;;;26.91;63.31
39181;BME280;24906;48.262;14.264;2022-07-23T08:53:10;98535.63;;;26.95;64.92
39181;BME280;24906;48.262;14.264;2022-07-23T08:56:04;98536.59;;;26.84;66.06
39181;BME280;24906;48.262;14.264;2022-07-23T08:58:58;98539.44;;;26.94;66.84
39181;BME280;24906;48.262;14.264;2022-07-23T09:01:52;98540.00;;;26.97;70.85
39181;BME280;24906;48.262;14.264;2022-07-23T09:04:46;98545.28;;;27.08;70.35
39181;BME280;24906;48.262;14.264;2022-07-23T09:07:33;98540.69;;;27.14;68.57
39181;BME280;24906;48.262;14.264;2022-07-23T09:10:27;98545.59;;;27.17;66.23
39181;BME280;24906;48.262;14.264;2022-07-23T09:16:28;98539.22;;;27.33;64.45
39181;BME280;24906;48.262;14.264;2022-07-23T09:19:27;98544.75;;;27.44;63.74
39181;BME280;24906;48.262;14.264;2022-07-23T09:22:22;98534.16;;;27.47;62.59
39181;BME280;24906;48.262;14.264;2022-07-23T09:25:18;98549.69;;;27.47;63.46
39181;BME280;24906;48.262;14.264;2022-07-23T09:28:12;98537.59;;;27.32;65.68
39181;BME280;24906;48.262;14.264;2022-07-23T09:31:06;98538.19;;;27.40;64.06
39181;BME280;24906;48.262;14.264;2022-07-23T09:34:13;98539.22;;;27.33;68.06
39181;BME280;24906;48.262;14.264;2022-07-23T09:37:17;98534.75;;;27.22;67.19
39181;BME280;24906;48.262;14.264;2022-07-23T09:40:12;98536.56;;;27.39;66.19
39181;BME280;24906;48.262;14.264;2022-07-23T09:43:07;98535.66;;;27.28;63.34
39181;BME280;24906;48.262;14.264;2022-07-23T09:49:21;98532.19;;;27.38;62.80
39181;BME280;24906;48.262;14.264;2022-07-23T09:52:26;98532.19;;;27.38;63.20
39181;BME280;24906;48.262;14.264;2022-07-23T09:55:31;98522.13;;;27.43;56.34
39181;BME280;24906;48.262;14.264;2022-07-23T09:58:28;98521.88;;;27.45;57.40
39181;BME280;24906;48.262;14.264;2022-07-23T10:01:24;98521.41;;;27.58;59.32
39181;BME280;24906;48.262;14.264;2022-07-23T10:04:11;98525.19;;;27.52;60.46
39181;BME280;24906;48.262;14.264;2022-07-23T10:07:08;98519.19;;;27.50;59.89
39181;BME280;24906;48.262;14.264;2022-07-23T10:09:57;98519.75;;;27.57;58.51
39181;BME280;24906;48.262;14.264;2022-07-23T10:12:54;98522.47;;;27.57;57.03
39181;BME280;24906;48.262;14.264;2022-07-23T10:15:51;98523.59;;;27.56;57.15
39181;BME280;24906;48.262;14.264;2022-07-23T10:18:46;98524.19;;;27.63;60.17
39181;BME280;24906;48.262;14.264;2022-07-23T10:21:40;98522.03;;;27.70;57.10
39181;BME280;24906;48.262;14.264;2022-07-23T10:27:42;98524.13;;;27.96;52.09
39181;BME280;24906;48.262;14.264;2022-07-23T10:40:17;98533.69;;;28.03;46.77
39181;BME280;24906;48.262;14.264;2022-07-23T10:43:15;98523.88;;;28.12;44.69
39181;BME280;24906;48.262;14.264;2022-07-23T10:46:24;98522.88;;;28.29;44.95
39181;BME280;24906;48.262;14.264;2022-07-23T10:49:37;98525.84;;;28.27;45.26
39181;BME280;24906;48.262;14.264;2022-07-23T10:52:26;98519.06;;;28.35;45.70
39181;BME280;24906;48.262;14.264;2022-07-23T10:55:38;98514.72;;;28.34;45.26
39181;BME280;24906;48.262;14.264;2022-07-23T10:58:47;98510.88;;;28.35;45.07
39181;BME280;24906;48.262;14.264;2022-07-23T11:01:36;98517.94;;;28.21;46.61
39181;BME280;24906;48.262;14.264;2022-07-23T11:04:50;98508.91;;;28.20;46.43
39181;BME280;24906;48.262;14.264;2022-07-23T11:13:57;98505.41;;;28.35;50.40
39181;BME280;24906;48.262;14.264;2022-07-23T11:16:54;98509.53;;;28.43;47.18
39181;BME280;24906;48.262;14.264;2022-07-23T11:23:06;98509.31;;;28.60;48.98
39181;BME280;24906;48.262;14.264;2022-07-23T11:25:53;98508.81;;;28.78;48.08
39181;BME280;24906;48.262;14.264;2022-07-23T11:28:48;98509.31;;;28.60;50.43
39181;BME280;24906;48.262;14.264;2022-07-23T11:31:56;98502.81;;;28.76;50.07
39181;BME280;24906;48.262;14.264;2022-07-23T11:34:45;98500.28;;;28.49;49.60
39181;BME280;24906;48.262;14.264;2022-07-23T11:37:43;98503.31;;;28.58;49.71
39181;BME280;24906;48.262;14.264;2022-07-23T11:40:49;98499.50;;;28.79;52.28
39181;BME280;24906;48.262;14.264;2022-07-23T11:43:37;98505.53;;;28.86;50.64
39181;BME280;24906;48.262;14.264;2022-07-23T11:46:31;98498.44;;;28.80;50.79
39181;BME280;24906;48.262;14.264;2022-07-23T11:49:18;98506.06;;;28.73;53.36
39181;BME280;24906;48.262;14.264;2022-07-23T11:52:13;98496.81;;;28.89;54.25
39181;BME280;24906;48.262;14.264;2022-07-23T11:55:05;98495.72;;;28.85;51.40
39181;BME280;24906;48.262;14.264;2022-07-23T11:57:59;98489.69;;;28.94;51.98
39181;BME280;24906;48.262;14.264;2022-07-23T12:00:47;98487.50;;;29.06;50.77
39181;BME280;24906;48.262;14.264;2022-07-23T12:03:51;98490.50;;;28.94;49.58
39181;BME280;24906;48.262;14.264;2022-07-23T12:06:38;98485.59;;;29.06;50.58
39181;BME280;24906;48.262;14.264;2022-07-23T12:09:32;98477.41;;;29.01;49.63
39181;BME280;24906;48.262;14.264;2022-07-23T12:12:26;98467.88;;;29.14;50.05
39181;BME280;24906;48.262;14.264;2022-07-23T12:15:14;98457.41;;;29.42;49.89
39181;BME280;24906;48.262;14.264;2022-07-23T12:18:11;98461.75;;;29.53;50.39
39181;BME280;24906;48.262;14.264;2022-07-23T12:21:05;98473.78;;;29.67;49.03
39181;BME280;24906;48.262;14.264;2022-07-23T12:24:05;98460.91;;;29.58;45.40
39181;BME280;24906;48.262;14.264;2022-07-23T12:27:11;98453.53;;;29.74;45.05
39181;BME280;24906;48.262;14.264;2022-07-23T12:30:39;98449.94;;;29.83;45.37
39181;BME280;24906;48.262;14.264;2022-07-23T12:33:36;98442.53;;;29.79;45.52
39181;BME280;24906;48.262;14.264;2022-07-23T12:36:37;98440.66;;;29.79;44.22
39181;BME280;24906;48.262;14.264;2022-07-23T12:39:33;98439.59;;;29.75;45.23
39181;BME280;24906;48.262;14.264;2022-07-23T12:42:20;98434.91;;;29.81;45.94
39181;BME280;24906;48.262;14.264;2022-07-23T12:45:16;98438.22;;;29.67;47.47
39181;BME280;24906;48.262;14.264;2022-07-23T12:48:05;98434.50;;;30.03;47.33
39181;BME280;24906;48.262;14.264;2022-07-23T12:54:14;98426.00;;;30.54;42.80
39181;BME280;24906;48.262;14.264;2022-07-23T12:57:10;98428.50;;;30.51;40.29
39181;BME280;24906;48.262;14.264;2022-07-23T13:00:09;98421.19;;;30.75;40.17
39181;BME280;24906;48.262;14.264;2022-07-23T13:02:56;98424.56;;;31.01;39.35
39181;BME280;24906;48.262;14.264;2022-07-23T13:05:50;98429.88;;;31.41;37.71
39181;BME280;24906;48.262;14.264;2022-07-23T13:08:44;98420.31;;;31.38;38.36
39181;BME280;24906;48.262;14.264;2022-07-23T13:11:31;98421.34;;;31.91;38.28
39181;BME280;24906;48.262;14.264;2022-07-23T13:14:25;98418.94;;;31.89;37.75
39181;BME280;24906;48.262;14.264;2022-07-23T13:17:13;98419.84;;;32.04;38.40
39181;BME280;24906;48.262;14.264;2022-07-23T13:20:08;98413.44;;;31.89;38.79
39181;BME280;24906;48.262;14.264;2022-07-23T13:23:02;98419.50;;;31.86;39.26
39181;BME280;24906;48.262;14.264;2022-07-23T13:25:56;98420.41;;;31.82;38.62
39181;BME280;24906;48.262;14.264;2022-07-23T13:28:44;98417.03;;;31.85;39.91
39181;BME280;24906;48.262;14.264;2022-07-23T13:31:38;98413.56;;;31.98;39.73
39181;BME280;24906;48.262;14.264;2022-07-23T13:34:25;98416.28;;;32.03;39.14
39181;BME280;24906;48.262;14.264;2022-07-23T13:37:20;98409.81;;;31.70;37.97
39181;BME280;24906;48.262;14.264;2022-07-23T13:40:13;98415.50;;;31.54;39.32
39181;BME280;24906;48.262;14.264;2022-07-23T13:43:13;98415.84;;;31.72;39.88
39181;BME280;24906;48.262;14.264;2022-07-23T13:46:08;98426.13;;;31.08;40.86
39181;BME280;24906;48.262;14.264;2022-07-23T13:49:02;98429.97;;;31.07;41.00
39181;BME280;24906;48.262;14.264;2022-07-23T13:51:53;98418.97;;;30.77;42.21
39181;BME280;24906;48.262;14.264;2022-07-23T13:54:47;98413.06;;;30.65;43.26
39181;BME280;24906;48.262;14.264;2022-07-23T13:57:43;98419.63;;;30.64;44.17
39181;BME280;24906;48.262;14.264;2022-07-23T14:00:31;98420.31;;;30.45;46.14
39181;BME280;24906;48.262;14.264;2022-07-23T14:03:38;98427.88;;;30.59;45.49
39181;BME280;24906;48.262;14.264;2022-07-23T14:06:25;98420.13;;;30.32;45.88
39181;BME280;24906;48.262;14.264;2022-07-23T14:09:19;98422.13;;;30.16;45.70
39181;BME280;24906;48.262;14.264;2022-07-23T14:12:14;98421.69;;;29.98;46.75
39181;BME280;24906;48.262;14.264;2022-07-23T14:15:09;98429.72;;;29.79;48.38
39181;BME280;24906;48.262;14.264;2022-07-23T14:17:59;98426.16;;;29.68;49.64
39181;BME280;24906;48.262;14.264;2022-07-23T14:20:53;98433.88;;;29.46;48.88
39181;BME280;24906;48.262;14.264;2022-07-23T14:23:40;98432.31;;;29.30;49.49
39181;BME280;24906;48.262;14.264;2022-07-23T14:26:34;98433.38;;;29.23;50.06
39181;BME280;24906;48.262;14.264;2022-07-23T14:29:29;98429.28;;;29.00;50.39
39181;BME280;24906;48.262;14.264;2022-07-23T14:32:16;98432.31;;;28.88;51.60
39181;BME280;24906;48.262;14.264;2022-07-23T14:35:17;98425.22;;;28.82;52.90
39181;BME280;24906;48.262;14.264;2022-07-23T14:38:18;98433.97;;;28.79;51.81
39181;BME280;24906;48.262;14.264;2022-07-23T14:41:12;98429.03;;;28.66;51.66
39181;BME280;24906;48.262;14.264;2022-07-23T14:44:02;98433.41;;;28.52;53.10
39181;BME280;24906;48.262;14.264;2022-07-23T14:46:56;98434.47;;;28.45;53.07
39181;BME280;24906;48.262;14.264;2022-07-23T14:49:43;98442.66;;;28.45;53.02
39181;BME280;24906;48.262;14.264;2022-07-23T14:52:38;98445.34;;;28.35;51.82
39181;BME280;24906;48.262;14.264;2022-07-23T14:55:35;98440.41;;;28.22;53.25
39181;BME280;24906;48.262;14.264;2022-07-23T14:58:29;98440.97;;;28.19;51.75
39181;BME280;24906;48.262;14.264;2022-07-23T15:01:23;98439.31;;;28.07;47.94
39181;BME280;24906;48.262;14.264;2022-07-23T15:04:12;98438.22;;;28.03;48.64
39181;BME280;24906;48.262;14.264;2022-07-23T15:07:23;98439.53;;;27.90;48.56
39181;BME280;24906;48.262;14.264;2022-07-23T15:10:19;98433.81;;;28.02;47.88
39181;BME280;24906;48.262;14.264;2022-07-23T15:13:13;98445.72;;;27.86;48.69
39181;BME280;24906;48.262;14.264;2022-07-23T15:16:07;98444.38;;;27.83;49.08
39181;BME280;24906;48.262;14.264;2022-07-23T15:18:56;98439.69;;;27.73;49.31
39181;BME280;24906;48.262;14.264;2022-07-23T15:21:51;98438.59;;;27.69;50.60
39181;BME280;24906;48.262;14.264;2022-07-23T15:24:45;98427.69;;;27.69;51.77
39181;BME280;24906;48.262;14.264;2022-07-23T15:27:39;98427.09;;;27.62;52.46
39181;BME280;24906;48.262;14.264;2022-07-23T15:30:26;98431.19;;;27.60;52.62
39181;BME280;24906;48.262;14.264;2022-07-23T15:33:23;98430.34;;;27.54;53.59